sensor_id;sensor_type;location;lat;lon;timestamp;pressure;altitude;pressure_sealevel;temperature;humidity
21664;BME280;10993;52.510;13.456;2023-03-21T00:03:30;56552.69;;;-146.93;54.33
21664;BME280;10993;52.510;13.456;2023-03-21T00:08:32;56556.75;;;-146.93;55.95
21664;BME280;10993;52.510;13.456;2023-03-21T00:13:34;56536.50;;;-146.93;56.17
21664;BME280;10993;52.510;13.456;2023-03-21T00:18:37;57506.44;;;-146.93;56.44
21664;BME280;10993;52.510;13.456;2023-03-21T00:23:43;56572.94;;;-146.93;56.53
21664;BME280;10993;52.510;13.456;2023-03-21T00:28:45;56560.78;;;-146.93;56.01
21664;BME280;10993;52.510;13.456;2023-03-21T00:33:45;56564.84;;;-146.93;55.56
21664;BME280;10993;52.510;13.456;2023-03-21T00:38:47;56548.66;;;-146.93;55.72
21664;BME280;10993;52.510;13.456;2023-03-21T00:43:47;56601.28;;;-146.93;55.17
21664;BME280;10993;52.510;13.456;2023-03-21T00:48:48;56552.69;;;-146.93;55.27
21664;BME280;10993;52.510;13.456;2023-03-21T00:53:49;56556.75;;;-146.93;54.54
21664;BME280;10993;52.510;13.456;2023-03-21T00:58:50;56558.75;;;-146.93;54.54
21664;BME280;10993;52.510;13.456;2023-03-21T01:03:50;56516.25;;;-146.93;56.57
21664;BME280;10993;52.510;13.456;2023-03-21T01:09:04;56528.41;;;-146.93;58.63
21664;BME280;10993;52.510;13.456;2023-03-21T01:14:05;56538.53;;;-146.93;59.81
21664;BME280;10993;52.510;13.456;2023-03-21T01:19:07;56516.25;;;-146.93;61.51
21664;BME280;10993;52.510;13.456;2023-03-21T01:24:09;56455.50;;;-146.93;61.15
21664;BME280;10993;52.510;13.456;2023-03-21T01:29:10;56550.66;;;-146.93;61.69
21664;BME280;10993;52.510;13.456;2023-03-21T01:34:10;56534.47;;;-146.93;62.23
21664;BME280;10993;52.510;13.456;2023-03-21T01:39:12;56587.13;;;-146.93;62.57
21664;BME280;10993;52.510;13.456;2023-03-21T01:44:14;56560.78;;;-146.93;62.50
21664;BME280;10993;52.510;13.456;2023-03-21T01:49:19;56548.66;;;-146.93;62.19
21664;BME280;10993;52.510;13.456;2023-03-21T01:54:30;56548.66;;;-146.93;61.28
21664;BME280;10993;52.510;13.456;2023-03-21T01:59:36;56530.41;;;-146.93;60.83
21664;BME280;10993;52.510;13.456;2023-03-21T02:04:39;56536.50;;;-146.93;60.29
21664;BME280;10993;52.510;13.456;2023-03-21T02:09:44;56548.66;;;-146.93;59.83
21664;BME280;10993;52.510;13.456;2023-03-21T02:14:47;56556.75;;;-146.93;60.38
21664;BME280;10993;52.510;13.456;2023-03-21T02:20:11;56516.25;;;-146.93;60.37
21664;BME280;10993;52.510;13.456;2023-03-21T02:25:52;56607.34;;;-146.93;59.96
21664;BME280;10993;52.510;13.456;2023-03-21T02:31:13;56905.00;;;-146.93;60.04
21664;BME280;10993;52.510;13.456;2023-03-21T02:36:25;56532.44;;;-146.93;60.46
21664;BME280;10993;52.510;13.456;2023-03-21T02:41:34;56514.22;;;-146.93;60.13
21664;BME280;10993;52.510;13.456;2023-03-21T02:46:41;56564.84;;;-146.93;60.22
21664;BME280;10993;52.510;13.456;2023-03-21T02:51:45;56564.84;;;-146.93;60.10
21664;BME280;10993;52.510;13.456;2023-03-21T02:56:48;56566.88;;;-146.93;60.07
21664;BME280;10993;52.510;13.456;2023-03-21T03:01:50;56544.59;;;-146.93;59.81
21664;BME280;10993;52.510;13.456;2023-03-21T03:07:09;56528.41;;;-146.93;60.12
21664;BME280;10993;52.510;13.456;2023-03-21T03:12:20;57058.91;;;-146.93;60.09
21664;BME280;10993;52.510;13.456;2023-03-21T03:17:34;56532.44;;;-146.93;60.89
21664;BME280;10993;52.510;13.456;2023-03-21T03:22:43;56516.25;;;-146.93;61.17
21664;BME280;10993;52.510;13.456;2023-03-21T03:27:49;56477.78;;;-146.93;61.88
21664;BME280;10993;52.510;13.456;2023-03-21T03:32:52;56546.63;;;-146.93;62.01
21664;BME280;10993;52.510;13.456;2023-03-21T03:37:57;56471.72;;;-146.93;62.07
21664;BME280;10993;52.510;13.456;2023-03-21T03:43:03;56552.69;;;-146.93;64.12
21664;BME280;10993;52.510;13.456;2023-03-21T03:48:10;56542.56;;;-146.93;64.58
21664;BME280;10993;52.510;13.456;2023-03-21T03:53:17;56441.34;;;-146.93;64.69
21664;BME280;10993;52.510;13.456;2023-03-21T03:58:22;57054.84;;;-146.93;64.69
21664;BME280;10993;52.510;13.456;2023-03-21T04:03:22;56862.47;;;-146.93;65.81
21664;BME280;10993;52.510;13.456;2023-03-21T04:08:23;56546.63;;;-146.93;66.78
21664;BME280;10993;52.510;13.456;2023-03-21T04:13:25;56591.16;;;-146.93;67.18
21664;BME280;10993;52.510;13.456;2023-03-21T04:18:25;56552.69;;;-146.93;67.04
21664;BME280;10993;52.510;13.456;2023-03-21T04:23:26;56548.66;;;-146.93;65.78
21664;BME280;10993;52.510;13.456;2023-03-21T04:28:29;56504.09;;;-146.93;65.93
21664;BME280;10993;52.510;13.456;2023-03-21T04:33:30;56504.09;;;-146.93;65.67
21664;BME280;10993;52.510;13.456;2023-03-21T04:38:31;56532.44;;;-146.93;65.82
21664;BME280;10993;52.510;13.456;2023-03-21T04:43:34;56528.41;;;-146.93;66.48
21664;BME280;10993;52.510;13.456;2023-03-21T04:48:35;56455.50;;;-146.93;66.55
21664;BME280;10993;52.510;13.456;2023-03-21T04:53:36;56538.53;;;-146.93;66.04
21664;BME280;10993;52.510;13.456;2023-03-21T04:58:38;56544.59;;;-146.93;66.18
21664;BME280;10993;52.510;13.456;2023-03-21T05:03:41;56540.53;;;-146.93;66.42
21664;BME280;10993;52.510;13.456;2023-03-21T05:08:42;57042.69;;;-146.93;67.92
21664;BME280;10993;52.510;13.456;2023-03-21T05:13:44;56542.56;;;-146.93;67.47
21664;BME280;10993;52.510;13.456;2023-03-21T05:18:45;56475.75;;;-146.93;68.10
21664;BME280;10993;52.510;13.456;2023-03-21T05:23:49;56548.66;;;-146.93;68.35
21664;BME280;10993;52.510;13.456;2023-03-21T05:28:54;56378.56;;;-146.93;69.40
21664;BME280;10993;52.510;13.456;2023-03-21T05:33:55;56516.25;;;-146.93;69.52
21664;BME280;10993;52.510;13.456;2023-03-21T05:38:55;56516.25;;;-146.93;70.41
21664;BME280;10993;52.510;13.456;2023-03-21T05:43:57;56568.88;;;-146.93;70.58
21664;BME280;10993;52.510;13.456;2023-03-21T05:48:57;56536.50;;;-146.93;71.34
21664;BME280;10993;52.510;13.456;2023-03-21T05:53:57;56532.44;;;-146.93;70.37
21664;BME280;10993;52.510;13.456;2023-03-21T05:58:59;56548.66;;;-146.93;70.21
21664;BME280;10993;52.510;13.456;2023-03-21T06:04:00;56562.81;;;-146.93;69.52
21664;BME280;10993;52.510;13.456;2023-03-21T06:09:00;56524.34;;;-146.93;68.13
21664;BME280;10993;52.510;13.456;2023-03-21T06:14:02;56404.91;;;-146.93;68.88
21664;BME280;10993;52.510;13.456;2023-03-21T06:19:03;56392.75;;;-146.93;68.15
21664;BME280;10993;52.510;13.456;2023-03-21T06:24:03;56556.75;;;-146.93;67.92
21664;BME280;10993;52.510;13.456;2023-03-21T06:29:05;56550.66;;;-146.93;68.94
21664;BME280;10993;52.510;13.456;2023-03-21T06:34:06;56560.78;;;-146.93;68.27
21664;BME280;10993;52.510;13.456;2023-03-21T06:39:06;56493.97;;;-146.93;67.70
21664;BME280;10993;52.510;13.456;2023-03-21T06:44:09;56785.53;;;-146.93;67.37
21664;BME280;10993;52.510;13.456;2023-03-21T06:49:09;56540.53;;;-146.93;67.05
21664;BME280;10993;52.510;13.456;2023-03-21T06:54:10;56544.59;;;-146.93;68.08
21664;BME280;10993;52.510;13.456;2023-03-21T06:59:11;56583.06;;;-146.93;68.28
21664;BME280;10993;52.510;13.456;2023-03-21T07:04:12;56556.75;;;-146.93;69.91
21664;BME280;10993;52.510;13.456;2023-03-21T07:09:12;56605.34;;;-146.93;68.49
21664;BME280;10993;52.510;13.456;2023-03-21T07:14:14;56601.28;;;-146.93;68.67
21664;BME280;10993;52.510;13.456;2023-03-21T07:19:15;56532.44;;;-146.93;68.76
21664;BME280;10993;52.510;13.456;2023-03-21T07:24:15;56597.25;;;-146.93;69.03
21664;BME280;10993;52.510;13.456;2023-03-21T07:29:17;56570.91;;;-146.93;70.02
21664;BME280;10993;52.510;13.456;2023-03-21T07:34:20;56572.94;;;-146.93;70.70
21664;BME280;10993;52.510;13.456;2023-03-21T07:39:20;56601.28;;;-146.93;70.64
21664;BME280;10993;52.510;13.456;2023-03-21T07:44:24;56611.41;;;-146.93;70.00
21664;BME280;10993;52.510;13.456;2023-03-21T07:49:24;56585.09;;;-146.93;69.84
21664;BME280;10993;52.510;13.456;2023-03-21T07:54:25;56574.97;;;-146.93;70.58
21664;BME280;10993;52.510;13.456;2023-03-21T07:59:29;56568.88;;;-146.93;70.16
21664;BME280;10993;52.510;13.456;2023-03-21T08:04:29;56568.88;;;-146.93;70.33
21664;BME280;10993;52.510;13.456;2023-03-21T08:09:31;56643.81;;;-146.93;70.16
21664;BME280;10993;52.510;13.456;2023-03-21T08:14:33;56568.88;;;-146.93;70.40
21664;BME280;10993;52.510;13.456;2023-03-21T08:19:34;56611.41;;;-146.93;72.09
21664;BME280;10993;52.510;13.456;2023-03-21T08:24:37;56603.31;;;-146.93;72.06
21664;BME280;10993;52.510;13.456;2023-03-21T08:29:39;56621.53;;;-146.93;71.21
21664;BME280;10993;52.510;13.456;2023-03-21T08:34:41;56635.72;;;-146.93;70.50
21664;BME280;10993;52.510;13.456;2023-03-21T08:39:41;56672.16;;;-146.93;70.40
21664;BME280;10993;52.510;13.456;2023-03-21T08:44:43;56617.47;;;-146.93;72.70
21664;BME280;10993;52.510;13.456;2023-03-21T08:49:45;56591.16;;;-146.93;74.64
21664;BME280;10993;52.510;13.456;2023-03-21T08:54:45;56593.19;;;-146.93;74.65
21664;BME280;10993;52.510;13.456;2023-03-21T08:59:47;56605.34;;;-146.93;74.30
21664;BME280;10993;52.510;13.456;2023-03-21T09:04:47;56641.78;;;-146.93;73.04
21664;BME280;10993;52.510;13.456;2023-03-21T09:09:48;56613.44;;;-146.93;73.05
21664;BME280;10993;52.510;13.456;2023-03-21T09:14:53;56631.66;;;-146.93;73.79
21664;BME280;10993;52.510;13.456;2023-03-21T09:19:53;56504.09;;;-146.93;73.21
21664;BME280;10993;52.510;13.456;2023-03-21T09:24:54;56595.22;;;-146.93;74.93
21664;BME280;10993;52.510;13.456;2023-03-21T09:29:56;56601.28;;;-146.93;75.94
21664;BME280;10993;52.510;13.456;2023-03-21T09:34:56;56639.75;;;-146.93;73.74
21664;BME280;10993;52.510;13.456;2023-03-21T09:39:57;56641.78;;;-146.93;73.03
21664;BME280;10993;52.510;13.456;2023-03-21T09:45:05;56674.19;;;-146.93;71.79
21664;BME280;10993;52.510;13.456;2023-03-21T09:50:14;56670.13;;;-146.93;69.47
21664;BME280;10993;52.510;13.456;2023-03-21T09:55:21;57172.31;;;-146.93;69.33
21664;BME280;10993;52.510;13.456;2023-03-21T10:00:26;56635.72;;;-146.93;70.87
21664;BME280;10993;52.510;13.456;2023-03-21T10:05:30;56682.28;;;-146.93;70.25
21664;BME280;10993;52.510;13.456;2023-03-21T10:10:34;56662.03;;;-146.93;69.75
21664;BME280;10993;52.510;13.456;2023-03-21T10:15:37;56522.31;;;-146.93;69.31
21664;BME280;10993;52.510;13.456;2023-03-21T10:20:41;56645.81;;;-146.93;68.97
21664;BME280;10993;52.510;13.456;2023-03-21T10:25:44;56678.22;;;-146.93;67.92
21664;BME280;10993;52.510;13.456;2023-03-21T10:30:50;56763.28;;;-146.93;66.02
21664;BME280;10993;52.510;13.456;2023-03-21T10:35:54;56613.44;;;-146.93;64.65
21664;BME280;10993;52.510;13.456;2023-03-21T10:40:56;56704.53;;;-146.93;65.33
21664;BME280;10993;52.510;13.456;2023-03-21T10:45:57;56698.47;;;-146.93;65.46
21664;BME280;10993;52.510;13.456;2023-03-21T10:50:58;56706.56;;;-146.93;64.49
21664;BME280;10993;52.510;13.456;2023-03-21T10:55:59;56688.34;;;-146.93;63.78
21664;BME280;10993;52.510;13.456;2023-03-21T11:01:02;56660.00;;;-146.93;66.39
21664;BME280;10993;52.510;13.456;2023-03-21T11:06:06;56666.06;;;-146.93;65.21
21664;BME280;10993;52.510;13.456;2023-03-21T11:11:08;56627.59;;;-146.93;66.35
21664;BME280;10993;52.510;13.456;2023-03-21T11:16:22;56704.53;;;-146.93;66.00
21664;BME280;10993;52.510;13.456;2023-03-21T11:21:23;56700.50;;;-146.93;63.97
21664;BME280;10993;52.510;13.456;2023-03-21T11:26:29;56722.78;;;-146.93;62.63
21664;BME280;10993;52.510;13.456;2023-03-21T11:31:39;56734.91;;;-146.93;62.60
21664;BME280;10993;52.510;13.456;2023-03-21T11:36:40;56686.31;;;-146.93;63.17
21664;BME280;10993;52.510;13.456;2023-03-21T11:41:41;56747.06;;;-146.93;61.89
21664;BME280;10993;52.510;13.456;2023-03-21T11:46:43;56755.16;;;-146.93;61.08
21664;BME280;10993;52.510;13.456;2023-03-21T11:51:47;56783.50;;;-146.93;60.03
21664;BME280;10993;52.510;13.456;2023-03-21T11:56:52;56822.00;;;-146.93;58.16
21664;BME280;10993;52.510;13.456;2023-03-21T12:02:02;56789.59;;;-146.93;58.70
21664;BME280;10993;52.510;13.456;2023-03-21T12:07:23;56822.00;;;-146.93;58.61
21664;BME280;10993;52.510;13.456;2023-03-21T12:12:33;56815.91;;;-146.93;59.22
21664;BME280;10993;52.510;13.456;2023-03-21T12:17:46;56830.09;;;-146.93;57.48
21664;BME280;10993;52.510;13.456;2023-03-21T12:23:01;56828.06;;;-146.93;56.36
21664;BME280;10993;52.510;13.456;2023-03-21T12:28:17;56832.13;;;-146.93;56.80
21664;BME280;10993;52.510;13.456;2023-03-21T12:33:35;56803.75;;;-146.93;58.81
21664;BME280;10993;52.510;13.456;2023-03-21T12:38:43;56745.03;;;-146.93;60.52
21664;BME280;10993;52.510;13.456;2023-03-21T12:43:48;56728.84;;;-146.93;62.30
21664;BME280;10993;52.510;13.456;2023-03-21T12:48:56;56747.06;;;-146.93;62.57
21664;BME280;10993;52.510;13.456;2023-03-21T12:54:09;56824.00;;;-146.93;60.30
21664;BME280;10993;52.510;13.456;2023-03-21T12:59:19;56824.00;;;-146.93;59.26
21664;BME280;10993;52.510;13.456;2023-03-21T13:04:43;56840.22;;;-146.93;58.68
21664;BME280;10993;52.510;13.456;2023-03-21T13:09:46;56787.56;;;-146.93;60.33
21664;BME280;10993;52.510;13.456;2023-03-21T13:14:55;56832.13;;;-146.93;59.40
21664;BME280;10993;52.510;13.456;2023-03-21T13:20:07;56872.59;;;-146.93;57.41
21664;BME280;10993;52.510;13.456;2023-03-21T13:25:18;56830.09;;;-146.93;57.39
21664;BME280;10993;52.510;13.456;2023-03-21T13:30:21;57235.09;;;-146.93;58.99
21664;BME280;10993;52.510;13.456;2023-03-21T13:35:32;56787.56;;;-146.93;58.07
21664;BME280;10993;52.510;13.456;2023-03-21T13:40:37;56761.25;;;-146.93;60.12
21664;BME280;10993;52.510;13.456;2023-03-21T13:45:45;56734.91;;;-146.93;60.53
21664;BME280;10993;52.510;13.456;2023-03-21T13:50:52;56749.09;;;-146.93;60.93
21664;BME280;10993;52.510;13.456;2023-03-21T13:56:08;56734.91;;;-146.93;61.32
21664;BME280;10993;52.510;13.456;2023-03-21T14:01:18;56694.41;;;-146.93;61.41
21664;BME280;10993;52.510;13.456;2023-03-21T14:06:23;56771.38;;;-146.93;60.44
21664;BME280;10993;52.510;13.456;2023-03-21T14:11:30;56643.81;;;-146.93;61.26
21664;BME280;10993;52.510;13.456;2023-03-21T14:16:32;56751.13;;;-146.93;61.85
21664;BME280;10993;52.510;13.456;2023-03-21T14:21:34;56688.34;;;-146.93;62.78
21664;BME280;10993;52.510;13.456;2023-03-21T14:26:37;56714.66;;;-146.93;67.42
21664;BME280;10993;52.510;13.456;2023-03-21T14:31:40;56728.84;;;-146.93;67.71
21664;BME280;10993;52.510;13.456;2023-03-21T14:36:43;56738.97;;;-146.93;66.66
21664;BME280;10993;52.510;13.456;2023-03-21T14:41:47;56755.16;;;-146.93;65.02
21664;BME280;10993;52.510;13.456;2023-03-21T14:46:48;56747.06;;;-146.93;65.28
21664;BME280;10993;52.510;13.456;2023-03-21T14:51:54;56710.63;;;-146.93;65.47
21664;BME280;10993;52.510;13.456;2023-03-21T14:56:58;56789.59;;;-146.93;64.51
21664;BME280;10993;52.510;13.456;2023-03-21T15:02:02;56745.03;;;-146.93;63.91
21664;BME280;10993;52.510;13.456;2023-03-21T15:07:05;56803.75;;;-146.93;62.54
21664;BME280;10993;52.510;13.456;2023-03-21T15:12:07;56777.44;;;-146.93;61.99
21664;BME280;10993;52.510;13.456;2023-03-21T15:17:09;56803.75;;;-146.93;62.83
21664;BME280;10993;52.510;13.456;2023-03-21T15:22:16;56795.66;;;-146.93;62.85
21664;BME280;10993;52.510;13.456;2023-03-21T15:27:23;56795.66;;;-146.93;61.73
21664;BME280;10993;52.510;13.456;2023-03-21T15:32:25;56789.59;;;-146.93;61.37
21664;BME280;10993;52.510;13.456;2023-03-21T15:37:32;56791.63;;;-146.93;61.53
21664;BME280;10993;52.510;13.456;2023-03-21T15:42:36;56789.59;;;-146.93;62.59
21664;BME280;10993;52.510;13.456;2023-03-21T15:47:38;56815.91;;;-146.93;62.47
21664;BME280;10993;52.510;13.456;2023-03-21T15:52:41;56807.81;;;-146.93;62.57
21664;BME280;10993;52.510;13.456;2023-03-21T15:57:44;56811.88;;;-146.93;63.09
21664;BME280;10993;52.510;13.456;2023-03-21T16:02:46;56811.88;;;-146.93;61.71
21664;BME280;10993;52.510;13.456;2023-03-21T16:07:49;56785.53;;;-146.93;63.75
21664;BME280;10993;52.510;13.456;2023-03-21T16:12:49;56783.50;;;-146.93;63.80
21664;BME280;10993;52.510;13.456;2023-03-21T16:17:51;56734.91;;;-146.93;64.29
21664;BME280;10993;52.510;13.456;2023-03-21T16:22:54;56795.66;;;-146.93;63.49
21664;BME280;10993;52.510;13.456;2023-03-21T16:27:55;56791.63;;;-146.93;62.80
21664;BME280;10993;52.510;13.456;2023-03-21T16:32:56;56755.16;;;-146.93;63.91
21664;BME280;10993;52.510;13.456;2023-03-21T16:37:57;56734.91;;;-146.93;64.33
21664;BME280;10993;52.510;13.456;2023-03-21T16:42:58;56771.38;;;-146.93;64.38
21664;BME280;10993;52.510;13.456;2023-03-21T16:47:59;56781.50;;;-146.93;63.97
21664;BME280;10993;52.510;13.456;2023-03-21T16:53:01;56787.56;;;-146.93;64.61
21664;BME280;10993;52.510;13.456;2023-03-21T16:58:01;56763.28;;;-146.93;64.86
21664;BME280;10993;52.510;13.456;2023-03-21T17:03:12;56751.13;;;-146.93;65.09
21664;BME280;10993;52.510;13.456;2023-03-21T17:08:16;56755.16;;;-146.93;65.25
21664;BME280;10993;52.510;13.456;2023-03-21T17:13:17;56722.78;;;-146.93;65.34
21664;BME280;10993;52.510;13.456;2023-03-21T17:18:17;56745.03;;;-146.93;65.38
21664;BME280;10993;52.510;13.456;2023-03-21T17:23:19;56773.38;;;-146.93;65.08
21664;BME280;10993;52.510;13.456;2023-03-21T17:28:19;56767.31;;;-146.93;64.67
21664;BME280;10993;52.510;13.456;2023-03-21T17:33:20;56607.34;;;-146.93;64.97
21664;BME280;10993;52.510;13.456;2023-03-21T17:38:21;56763.28;;;-146.93;65.41
21664;BME280;10993;52.510;13.456;2023-03-21T17:43:22;56765.28;;;-146.93;66.03
21664;BME280;10993;52.510;13.456;2023-03-21T17:48:22;56749.09;;;-146.93;65.91
21664;BME280;10993;52.510;13.456;2023-03-21T17:53:24;56757.19;;;-146.93;65.66
21664;BME280;10993;52.510;13.456;2023-03-21T17:58:25;56747.06;;;-146.93;66.32
21664;BME280;10993;52.510;13.456;2023-03-21T18:03:26;56747.06;;;-146.93;66.94
21664;BME280;10993;52.510;13.456;2023-03-21T18:08:28;56795.66;;;-146.93;66.16
21664;BME280;10993;52.510;13.456;2023-03-21T18:13:28;56722.78;;;-146.93;66.39
21664;BME280;10993;52.510;13.456;2023-03-21T18:18:28;57162.19;;;-146.93;66.96
21664;BME280;10993;52.510;13.456;2023-03-21T18:23:31;56763.28;;;-146.93;67.06
21664;BME280;10993;52.510;13.456;2023-03-21T18:28:32;56738.97;;;-146.93;67.49
21664;BME280;10993;52.510;13.456;2023-03-21T18:33:34;56734.91;;;-146.93;66.92
21664;BME280;10993;52.510;13.456;2023-03-21T18:38:36;56747.06;;;-146.93;66.69
21664;BME280;10993;52.510;13.456;2023-03-21T18:43:37;56686.31;;;-146.93;67.11
21664;BME280;10993;52.510;13.456;2023-03-21T18:48:38;56751.13;;;-146.93;66.78
21664;BME280;10993;52.510;13.456;2023-03-21T18:53:40;56684.31;;;-146.93;66.38
21664;BME280;10993;52.510;13.456;2023-03-21T18:58:40;56777.44;;;-146.93;66.57
21664;BME280;10993;52.510;13.456;2023-03-21T19:03:40;56747.06;;;-146.93;66.73
21664;BME280;10993;52.510;13.456;2023-03-21T19:08:42;56747.06;;;-146.93;67.51
21664;BME280;10993;52.510;13.456;2023-03-21T19:13:43;56745.03;;;-146.93;67.69
21664;BME280;10993;52.510;13.456;2023-03-21T19:18:43;56730.88;;;-146.93;68.01
21664;BME280;10993;52.510;13.456;2023-03-21T19:23:45;56732.91;;;-146.93;68.26
21664;BME280;10993;52.510;13.456;2023-03-21T19:28:45;56736.94;;;-146.93;70.07
21664;BME280;10993;52.510;13.456;2023-03-21T19:33:46;56741.00;;;-146.93;70.21
21664;BME280;10993;52.510;13.456;2023-03-21T19:38:48;56726.81;;;-146.93;71.21
21664;BME280;10993;52.510;13.456;2023-03-21T19:43:48;56732.91;;;-146.93;72.31
21664;BME280;10993;52.510;13.456;2023-03-21T19:48:49;56694.41;;;-146.93;73.51
21664;BME280;10993;52.510;13.456;2023-03-21T19:53:51;56694.41;;;-146.93;75.94
21664;BME280;10993;52.510;13.456;2023-03-21T19:58:51;56716.69;;;-146.93;76.96
21664;BME280;10993;52.510;13.456;2023-03-21T20:03:52;56720.75;;;-146.93;77.02
21664;BME280;10993;52.510;13.456;2023-03-21T20:08:54;56686.31;;;-146.93;78.39
21664;BME280;10993;52.510;13.456;2023-03-21T20:13:54;56653.94;;;-146.93;80.38
21664;BME280;10993;52.510;13.456;2023-03-21T20:18:55;56631.66;;;-146.93;81.54
21664;BME280;10993;52.510;13.456;2023-03-21T20:23:57;56704.53;;;-146.93;81.44
21664;BME280;10993;52.510;13.456;2023-03-21T20:28:57;56637.72;;;-146.93;81.66
21664;BME280;10993;52.510;13.456;2023-03-21T20:33:58;56678.22;;;-146.93;81.95
21664;BME280;10993;52.510;13.456;2023-03-21T20:39:00;56670.13;;;-146.93;82.11
21664;BME280;10993;52.510;13.456;2023-03-21T20:44:01;56688.34;;;-146.93;82.44
21664;BME280;10993;52.510;13.456;2023-03-21T20:49:01;56684.31;;;-146.93;82.97
21664;BME280;10993;52.510;13.456;2023-03-21T20:54:03;56664.06;;;-146.93;83.87
21664;BME280;10993;52.510;13.456;2023-03-21T20:59:03;56710.63;;;-146.93;84.58
21664;BME280;10993;52.510;13.456;2023-03-21T21:04:04;56540.53;;;-146.93;85.13
21664;BME280;10993;52.510;13.456;2023-03-21T21:09:08;56674.19;;;-146.93;85.29
21664;BME280;10993;52.510;13.456;2023-03-21T21:14:09;56674.19;;;-146.93;85.72
21664;BME280;10993;52.510;13.456;2023-03-21T21:19:10;56641.78;;;-146.93;86.33
21664;BME280;10993;52.510;13.456;2023-03-21T21:24:12;56674.19;;;-146.93;86.44
21664;BME280;10993;52.510;13.456;2023-03-21T21:29:12;57407.22;;;-146.93;86.31
21664;BME280;10993;52.510;13.456;2023-03-21T21:34:16;56649.88;;;-146.93;86.72
21664;BME280;10993;52.510;13.456;2023-03-21T21:39:22;56682.28;;;-146.93;86.38
21664;BME280;10993;52.510;13.456;2023-03-21T21:44:24;56660.00;;;-146.93;86.47
21664;BME280;10993;52.510;13.456;2023-03-21T21:49:25;56674.19;;;-146.93;87.06
21664;BME280;10993;52.510;13.456;2023-03-21T21:54:27;56670.13;;;-146.93;86.82
21664;BME280;10993;52.510;13.456;2023-03-21T21:59:29;56662.03;;;-146.93;87.29
21664;BME280;10993;52.510;13.456;2023-03-21T22:04:29;56633.69;;;-146.93;87.58
21664;BME280;10993;52.510;13.456;2023-03-21T22:09:31;56660.00;;;-146.93;87.92
21664;BME280;10993;52.510;13.456;2023-03-21T22:14:32;56692.41;;;-146.93;88.29
21664;BME280;10993;52.510;13.456;2023-03-21T22:19:32;56698.47;;;-146.93;88.28
21664;BME280;10993;52.510;13.456;2023-03-21T22:24:34;56694.41;;;-146.93;88.42
21664;BME280;10993;52.510;13.456;2023-03-21T22:29:35;56668.09;;;-146.93;88.48
21664;BME280;10993;52.510;13.456;2023-03-21T22:34:35;56643.81;;;-146.93;88.85
21664;BME280;10993;52.510;13.456;2023-03-21T22:39:37;56570.91;;;-146.93;88.28
21664;BME280;10993;52.510;13.456;2023-03-21T22:44:37;56670.13;;;-146.93;88.70
21664;BME280;10993;52.510;13.456;2023-03-21T22:49:38;56670.13;;;-146.93;88.80
21664;BME280;10993;52.510;13.456;2023-03-21T22:54:42;56911.09;;;-146.93;88.14
21664;BME280;10993;52.510;13.456;2023-03-21T22:59:43;56668.09;;;-146.93;89.01
21664;BME280;10993;52.510;13.456;2023-03-21T23:04:43;56662.03;;;-146.93;88.87
21664;BME280;10993;52.510;13.456;2023-03-21T23:09:45;56639.75;;;-146.93;88.67
21664;BME280;10993;52.510;13.456;2023-03-21T23:14:45;56714.66;;;-146.93;88.93
21664;BME280;10993;52.510;13.456;2023-03-21T23:19:46;56662.03;;;-146.93;89.04
21664;BME280;10993;52.510;13.456;2023-03-21T23:24:47;56682.28;;;-146.93;89.23
21664;BME280;10993;52.510;13.456;2023-03-21T23:29:48;56635.72;;;-146.93;89.12
21664;BME280;10993;52.510;13.456;2023-03-21T23:34:48;57348.50;;;-146.93;89.29
21664;BME280;10993;52.510;13.456;2023-03-21T23:39:50;56662.03;;;-146.93;89.90
21664;BME280;10993;52.510;13.456;2023-03-21T23:44:54;56678.22;;;-146.93;89.47
21664;BME280;10993;52.510;13.456;2023-03-21T23:49:54;56649.88;;;-146.93;88.97
21664;BME280;10993;52.510;13.456;2023-03-21T23:54:56;56633.69;;;-146.93;88.75
21664;BME280;10993;52.510;13.456;2023-03-21T23:59:56;56645.81;;;-146.93;88.69
